Time;durP1;ratioP1;P1;durP2;ratioP2;P2;SDS_P1;SDS_P2;PMS_P1;PMS_P2;Temp;Humidity;BMP_temperature;BMP_pressure;BME280_temperature;BME280_humidity;BME280_pressure;Samples;Min_cycle;Max_cycle;Signal;HPM_P1;HPM_P2
2023/03/27 00:01:20;;;;;;;1999.90;999.90;;;8.50;99.90;;;;;;5059120;28;20383;-72
2023/03/27 00:03:48;;;;;;;1999.90;999.90;;;8.60;99.90;;;;;;5059390;28;20029;-71
2023/03/27 00:06:15;;;;;;;1999.90;999.90;;;8.60;99.90;;;;;;5059048;28;20021;-80
2023/03/27 00:08:42;;;;;;;1999.90;999.90;;;8.60;99.90;;;;;;5059318;28;20373;-71
2023/03/27 00:11:08;;;;;;;1999.90;999.90;;;8.60;99.90;;;;;;5045677;28;20025;-71
2023/03/27 00:13:35;;;;;;;1999.90;999.90;;;8.50;99.90;;;;;;5039411;28;20408;-80
2023/03/27 00:16:04;;;;;;;1999.90;999.90;;;8.50;99.90;;;;;;5039082;28;20026;-71
2023/03/27 00:18:29;;;;;;;1999.90;999.90;;;8.40;99.90;;;;;;5058917;28;20115;-80
2023/03/27 00:21:00;;;;;;;1999.90;999.90;;;8.30;99.90;;;;;;5057733;28;20118;-71
2023/03/27 00:23:28;;;;;;;1999.90;999.90;;;8.20;99.90;;;;;;5059114;28;20155;-72
2023/03/27 00:25:55;;;;;;;1999.90;999.90;;;8.20;99.90;;;;;;5059034;28;20060;-71
2023/03/27 00:28:21;;;;;;;1999.90;999.90;;;8.20;99.90;;;;;;5059006;28;20043;-71
2023/03/27 00:30:47;;;;;;;1999.90;999.90;;;8.10;99.90;;;;;;5058814;28;20411;-71
2023/03/27 00:33:13;;;;;;;1999.90;999.90;;;8.10;99.90;;;;;;5059160;28;20025;-71
2023/03/27 00:35:44;;;;;;;1999.90;999.90;;;8.00;99.90;;;;;;5059174;28;20051;-72
2023/03/27 00:38:10;;;;;;;1999.90;999.90;;;8.10;99.90;;;;;;5056951;28;20071;-71
2023/03/27 00:40:36;;;;;;;1999.90;999.90;;;8.10;99.90;;;;;;5058666;28;20033;-71
2023/03/27 00:43:21;;;;;;;1999.90;999.90;;;8.10;99.90;;;;;;5058459;28;20492;-71
2023/03/27 00:45:49;;;;;;;1999.90;999.90;;;8.00;99.90;;;;;;5058757;28;20017;-71
2023/03/27 00:48:17;;;;;;;1999.90;999.90;;;8.00;99.90;;;;;;5058872;28;20041;-71
2023/03/27 00:50:45;;;;;;;1999.90;999.90;;;8.00;99.90;;;;;;5058328;28;20484;-71
2023/03/27 00:53:15;;;;;;;1999.90;999.90;;;7.90;99.90;;;;;;5058596;28;20013;-72
2023/03/27 00:55:45;;;;;;;1999.90;999.90;;;7.90;99.90;;;;;;5058568;28;20025;-71
2023/03/27 00:58:17;;;;;;;1999.90;999.90;;;7.80;99.90;;;;;;5058878;28;20018;-71
2023/03/27 01:00:42;;;;;;;1999.90;999.90;;;7.90;99.90;;;;;;5058983;28;20064;-71
2023/03/27 01:03:10;;;;;;;1999.90;999.90;;;7.80;99.90;;;;;;5058767;28;20260;-71
2023/03/27 01:05:36;;;;;;;1999.90;999.90;;;7.80;99.90;;;;;;5058597;28;20024;-72
2023/03/27 01:08:03;;;;;;;1999.90;999.90;;;7.70;99.90;;;;;;5055519;28;20053;-71
2023/03/27 01:10:50;;;;;;;1999.90;999.90;;;7.70;99.90;;;;;;5047300;28;20025;-71
2023/03/27 01:13:48;;;;;;;1999.90;999.90;;;7.70;99.90;;;;;;5035449;28;20073;-71
2023/03/27 01:16:38;;;;;;;1999.90;999.90;;;7.60;99.90;;;;;;5036039;28;20029;-71
2023/03/27 01:19:28;;;;;;;1999.90;999.90;;;7.60;99.90;;;;;;5054038;28;20021;-71
2023/03/27 01:22:12;;;;;;;1999.90;999.90;;;7.60;99.90;;;;;;5055114;28;20028;-71
2023/03/27 01:24:43;;;;;;;1999.90;999.90;;;7.60;99.90;;;;;;5054823;28;20025;-71
2023/03/27 01:27:15;;;;;;;1999.90;999.90;;;7.70;99.90;;;;;;5054897;28;20108;-71
2023/03/27 01:30:05;;;;;;;1999.90;999.90;;;7.60;99.90;;;;;;5055110;28;20484;-72
2023/03/27 01:32:46;;;;;;;1999.90;999.90;;;7.60;99.90;;;;;;5054812;28;20021;-71
2023/03/27 01:35:57;;;;;;;1999.90;999.90;;;7.60;99.90;;;;;;5055198;28;20025;-71
2023/03/27 01:38:34;;;;;;;1999.90;999.90;;;7.50;99.90;;;;;;5054758;28;20028;-71
2023/03/27 01:41:23;;;;;;;1999.90;999.90;;;7.50;99.90;;;;;;5054673;28;20087;-72
2023/03/27 01:44:30;;;;;;;1999.90;999.90;;;7.60;99.90;;;;;;5055004;28;20361;-71
2023/03/27 01:47:06;;;;;;;1999.90;999.90;;;7.70;99.90;;;;;;5054625;28;20083;-71
2023/03/27 01:49:39;;;;;;;1999.90;999.90;;;7.70;99.90;;;;;;5054588;28;20076;-80
2023/03/27 01:52:13;;;;;;;1999.90;999.90;;;7.80;99.90;;;;;;5054062;28;20021;-71
2023/03/27 01:54:42;;;;;;;1999.90;999.90;;;7.90;99.90;;;;;;5054933;28;20025;-80
2023/03/27 01:57:19;;;;;;;1999.90;999.90;;;8.00;99.90;;;;;;5054682;28;20024;-71
2023/03/27 02:00:16;;;;;;;1999.90;999.90;;;8.00;99.90;;;;;;5053179;28;20017;-71
2023/03/27 02:02:46;;;;;;;1999.90;999.90;;;8.10;99.90;;;;;;5054791;28;20020;-71
2023/03/27 02:05:28;;;;;;;1999.90;999.90;;;8.20;99.90;;;;;;5054538;28;20531;-71
2023/03/27 02:08:02;;;;;;;1999.90;999.90;;;8.20;99.90;;;;;;5054249;28;20112;-71
2023/03/27 02:10:33;;;;;;;1999.90;999.90;;;8.30;99.90;;;;;;5045971;28;20027;-71
2023/03/27 02:13:13;;;;;;;1999.90;999.90;;;8.40;99.90;;;;;;5034544;28;20025;-72
2023/03/27 02:15:42;;;;;;;1999.90;999.90;;;8.40;99.90;;;;;;5049601;28;20057;-71
2023/03/27 02:18:11;;;;;;;1999.90;999.90;;;8.50;99.90;;;;;;5050727;28;20029;-71
2023/03/27 02:20:39;;;;;;;1999.90;999.90;;;8.50;99.90;;;;;;5053579;28;20063;-79
2023/03/27 02:23:06;;;;;;;1999.90;999.90;;;8.60;99.90;;;;;;5054118;28;20054;-71
2023/03/27 02:25:38;;;;;;;1999.90;999.90;;;8.60;99.90;;;;;;5054295;28;20021;-80
2023/03/27 02:28:38;;;;;;;1999.90;999.90;;;8.70;99.90;;;;;;5054014;28;20016;-72
2023/03/27 02:31:26;;;;;;;1999.90;999.90;;;8.70;99.90;;;;;;5053709;28;20096;-79
2023/03/27 02:33:59;;;;;;;1999.90;999.90;;;8.70;99.90;;;;;;5053724;28;20056;-71
2023/03/27 02:36:46;;;;;;;1999.90;999.90;;;8.70;99.90;;;;;;5053858;28;20021;-71
2023/03/27 02:39:34;;;;;;;1999.90;999.90;;;8.70;99.90;;;;;;5053835;28;20025;-71
2023/03/27 02:42:15;;;;;;;1999.90;999.90;;;8.70;99.90;;;;;;5052227;28;20025;-71
2023/03/27 02:44:55;;;;;;;1999.90;999.90;;;8.70;99.90;;;;;;5053911;28;20021;-71
2023/03/27 02:47:42;;;;;;;1999.90;999.90;;;8.70;99.90;;;;;;5053552;28;20090;-71
2023/03/27 02:50:15;;;;;;;1999.90;999.90;;;8.70;99.90;;;;;;5053739;28;20044;-79
2023/03/27 02:52:50;;;;;;;1999.90;999.90;;;8.70;99.90;;;;;;5053023;28;20048;-71
2023/03/27 02:55:37;;;;;;;1999.90;999.90;;;8.60;99.90;;;;;;5053457;28;20116;-71
2023/03/27 02:58:07;;;;;;;1999.90;999.90;;;8.60;99.90;;;;;;5053463;28;20017;-71
2023/03/27 03:00:39;;;;;;;1999.90;999.90;;;8.60;99.90;;;;;;5053520;28;20028;-71
2023/03/27 03:03:16;;;;;;;1999.90;999.90;;;8.60;99.90;;;;;;5053425;28;20490;-71
2023/03/27 03:05:43;;;;;;;1999.90;999.90;;;8.60;99.90;;;;;;5053414;28;20099;-71
2023/03/27 03:08:09;;;;;;;1999.90;999.90;;;8.60;99.90;;;;;;5053336;28;20017;-71
2023/03/27 03:10:41;;;;;;;1999.90;999.90;;;8.50;99.90;;;;;;5044012;28;20025;-71
2023/03/27 03:13:07;;;;;;;1999.90;999.90;;;8.60;99.90;;;;;;5033357;28;20048;-71
2023/03/27 03:15:33;;;;;;;1999.90;999.90;;;8.60;99.90;;;;;;5033384;28;20018;-71
2023/03/27 03:17:58;;;;;;;1999.90;999.90;;;8.60;99.90;;;;;;5048686;28;20095;-71
2023/03/27 03:20:28;;;;;;;1999.90;999.90;;;8.60;99.90;;;;;;5052994;28;20021;-71
2023/03/27 03:22:56;;;;;;;1999.90;999.90;;;8.50;99.90;;;;;;5053077;28;20091;-71
2023/03/27 03:25:22;;;;;;;1999.90;999.90;;;8.60;99.90;;;;;;5053171;28;20028;-71
2023/03/27 03:27:48;;;;;;;1999.90;999.90;;;8.60;99.90;;;;;;5053221;28;20054;-71
2023/03/27 03:30:13;;;;;;;1999.90;999.90;;;8.60;99.90;;;;;;5052662;28;20100;-71
2023/03/27 03:32:39;;;;;;;1999.90;999.90;;;8.60;99.90;;;;;;5052607;28;20536;-71
2023/03/27 03:35:07;;;;;;;1999.90;999.90;;;8.60;99.90;;;;;;5052967;28;20029;-71
2023/03/27 03:37:37;;;;;;;1999.90;999.90;;;8.60;99.90;;;;;;5053069;28;20036;-79
2023/03/27 03:40:10;;;;;;;1999.90;999.90;;;8.60;99.90;;;;;;5052871;28;20017;-71
2023/03/27 03:42:42;;;;;;;1999.90;999.90;;;8.60;99.90;;;;;;5052660;28;20029;-71
2023/03/27 03:45:08;;;;;;;1999.90;999.90;;;8.60;99.90;;;;;;5052616;28;20074;-71
2023/03/27 03:47:34;;;;;;;1999.90;999.90;;;8.60;99.90;;;;;;5052569;28;20288;-71
2023/03/27 03:50:00;;;;;;;1999.90;999.90;;;8.60;99.90;;;;;;5052560;28;20132;-71
2023/03/27 03:52:26;;;;;;;1999.90;999.90;;;8.70;99.90;;;;;;5052058;28;20040;-71
2023/03/27 03:54:52;;;;;;;1999.90;999.90;;;8.60;99.90;;;;;;5052572;28;20071;-71
2023/03/27 03:57:18;;;;;;;1999.90;999.90;;;8.60;99.90;;;;;;5051310;28;20024;-71
2023/03/27 03:59:45;;;;;;;1999.90;999.90;;;8.60;99.90;;;;;;5052328;28;20434;-72
2023/03/27 04:02:11;;;;;;;1999.90;999.90;;;8.60;99.90;;;;;;5052742;28;20025;-71
2023/03/27 04:04:37;;;;;;;1999.90;999.90;;;8.60;99.90;;;;;;5052698;28;20044;-79
2023/03/27 04:07:05;;;;;;;1999.90;999.90;;;8.70;99.90;;;;;;5052449;28;20029;-79
2023/03/27 04:09:31;;;;;;;1999.90;999.90;;;8.70;99.90;;;;;;5052159;28;20025;-72
2023/03/27 04:11:57;;;;;;;1999.90;999.90;;;8.70;99.90;;;;;;5032401;28;20116;-79
2023/03/27 04:14:22;;;;;;;1999.90;999.90;;;8.70;99.90;;;;;;5032602;28;20109;-71
2023/03/27 04:16:48;;;;;;;1999.90;999.90;;;8.70;99.90;;;;;;5037992;28;20017;-71
2023/03/27 04:19:17;;;;;;;1999.90;999.90;;;8.60;99.90;;;;;;5052519;28;20396;-79
2023/03/27 04:21:42;;;;;;;1999.90;999.90;;;8.60;99.90;;;;;;5052425;28;20032;-71
2023/03/27 04:24:08;;;;;;;1999.90;999.90;;;8.50;99.90;;;;;;5052289;28;20391;-71
2023/03/27 04:26:34;;;;;;;1999.90;999.90;;;8.50;99.90;;;;;;5052359;28;20060;-71
2023/03/27 04:29:00;;;;;;;1999.90;999.90;;;8.50;99.90;;;;;;5052798;28;20024;-71
2023/03/27 04:31:25;;;;;;;1999.90;999.90;;;8.50;99.90;;;;;;5052222;28;20102;-71
2023/03/27 04:33:51;;;;;;;1999.90;999.90;;;8.50;99.90;;;;;;5052305;28;20068;-71
2023/03/27 04:36:17;;;;;;;1999.90;999.90;;;8.50;99.90;;;;;;5052417;28;20075;-71
2023/03/27 04:38:46;;;;;;;1999.90;999.90;;;8.50;99.90;;;;;;5052118;28;20087;-71
2023/03/27 04:41:12;;;;;;;1999.90;999.90;;;8.50;99.90;;;;;;5052222;28;20092;-71
2023/03/27 04:43:40;;;;;;;1999.90;999.90;;;8.50;99.90;;;;;;5054942;28;20017;-71
2023/03/27 04:46:07;;;;;;;1999.90;999.90;;;8.50;99.90;;;;;;5056075;28;20021;-71
2023/03/27 04:48:34;;;;;;;1999.90;999.90;;;8.40;99.90;;;;;;5055906;28;20106;-71
2023/03/27 04:50:59;;;;;;;1999.90;999.90;;;8.30;99.90;;;;;;5055830;28;20068;-71
2023/03/27 04:53:28;;;;;;;1999.90;999.90;;;8.20;99.90;;;;;;5055087;28;20453;-79
2023/03/27 04:55:56;;;;;;;1999.90;999.90;;;8.10;99.90;;;;;;5055220;28;20030;-79
2023/03/27 04:58:24;;;;;;;1999.90;999.90;;;8.00;99.90;;;;;;5054644;28;20476;-71
2023/03/27 05:00:54;;;;;;;1999.90;999.90;;;7.90;99.90;;;;;;5055258;28;20396;-72
2023/03/27 05:03:19;;;;;;;1999.90;999.90;;;7.80;99.90;;;;;;5055266;28;20024;-72
2023/03/27 05:05:51;;;;;;;1999.90;999.90;;;7.80;99.90;;;;;;5055457;28;20029;-71
2023/03/27 05:08:18;;;;;;;1999.90;999.90;;;7.70;99.90;;;;;;5055518;28;20104;-79
2023/03/27 05:10:47;;;;;;;1999.90;999.90;;;7.70;99.90;;;;;;5055209;28;20098;-71
2023/03/27 05:13:13;;;;;;;1999.90;999.90;;;7.60;99.90;;;;;;5055511;28;20049;-71
2023/03/27 05:15:38;;;;;;;1999.90;999.90;;;7.60;99.90;;;;;;5055207;28;20065;-71
2023/03/27 05:18:05;;;;;;;1999.90;999.90;;;7.50;99.90;;;;;;5055283;28;20021;-72
2023/03/27 05:20:31;;;;;;;1999.90;999.90;;;7.50;99.90;;;;;;5055152;28;20156;-71
2023/03/27 05:22:57;;;;;;;1999.90;999.90;;;7.40;99.90;;;;;;5053228;28;20116;-71
2023/03/27 05:25:23;;;;;;;1999.90;999.90;;;7.40;99.90;;;;;;5055186;28;20025;-71
2023/03/27 05:27:50;;;;;;;1999.90;999.90;;;7.40;99.90;;;;;;5055082;28;20032;-71
2023/03/27 05:30:19;;;;;;;1999.90;999.90;;;7.30;99.90;;;;;;5055068;28;20025;-71
2023/03/27 05:32:50;;;;;;;1999.90;999.90;;;7.30;99.90;;;;;;5054608;28;20151;-71
2023/03/27 05:35:18;;;;;;;1999.90;999.90;;;7.30;99.90;;;;;;5052997;28;20055;-71
2023/03/27 05:37:46;;;;;;;1999.90;999.90;;;7.30;99.90;;;;;;5054496;28;20028;-79
2023/03/27 05:40:14;;;;;;;1999.90;999.90;;;7.40;99.90;;;;;;5054199;28;20075;-71
2023/03/27 05:42:46;;;;;;;1999.90;999.90;;;7.40;99.90;;;;;;5054444;28;20484;-71
2023/03/27 05:45:12;;;;;;;1999.90;999.90;;;7.50;99.90;;;;;;5054536;28;20060;-71
2023/03/27 05:47:48;;;;;;;1999.90;999.90;;;7.60;99.90;;;;;;5051994;28;20558;-71
2023/03/27 05:50:16;;;;;;;1999.90;999.90;;;7.70;99.90;;;;;;5047014;28;20078;-79
2023/03/27 05:52:42;;;;;;;1999.90;999.90;;;7.70;99.90;;;;;;5039447;28;20123;-79
2023/03/27 05:55:09;;;;;;;1999.90;999.90;;;7.80;99.90;;;;;;5065100;28;20470;-78
2023/03/27 05:57:39;;;;;;;1999.90;999.90;;;7.90;99.90;;;;;;5053951;28;20029;-79
2023/03/27 06:00:10;;;;;;;1999.90;999.90;;;7.90;99.90;;;;;;5049898;28;20036;-71
2023/03/27 06:02:37;;;;;;;1999.90;999.90;;;8.00;99.90;;;;;;5045597;28;20017;-71
2023/03/27 06:05:05;;;;;;;1999.90;999.90;;;8.10;99.90;;;;;;5048387;28;20053;-78
2023/03/27 06:07:30;;;;;;;1999.90;999.90;;;8.10;99.90;;;;;;5052865;28;20021;-79
2023/03/27 06:09:56;;;;;;;1999.90;999.90;;;8.20;99.90;;;;;;5049832;28;20535;-79
2023/03/27 06:12:22;;;;;;;1999.90;999.90;;;8.20;99.90;;;;;;5049727;28;20033;-71
2023/03/27 06:14:48;;;;;;;1999.90;999.90;;;8.20;99.90;;;;;;5051013;28;20055;-70
2023/03/27 06:17:14;;;;;;;1999.90;999.90;;;8.30;99.90;;;;;;5044801;28;20025;-71
2023/03/27 06:19:40;;;;;;;1999.90;999.90;;;8.30;99.90;;;;;;5050508;28;20539;-78
2023/03/27 06:22:06;;;;;;;1999.90;999.90;;;8.30;99.90;;;;;;5050323;28;20431;-79
2023/03/27 06:24:32;;;;;;;1999.90;999.90;;;8.40;99.90;;;;;;5052253;28;20055;-72
2023/03/27 06:26:57;;;;;;;1999.90;999.90;;;8.40;99.90;;;;;;5050341;28;20036;-71
2023/03/27 06:29:27;;;;;;;1999.90;999.90;;;8.40;99.90;;;;;;5058179;28;20462;-77
2023/03/27 06:31:56;;;;;;;1999.90;999.90;;;8.40;99.90;;;;;;5060619;28;20476;-79
2023/03/27 06:34:22;;;;;;;1999.90;999.90;;;8.50;99.90;;;;;;5040134;28;20028;-78
2023/03/27 06:36:48;;;;;;;1999.90;999.90;;;8.50;99.90;;;;;;5043148;28;20033;-71
2023/03/27 06:39:15;;;;;;;1999.90;999.90;;;8.50;99.90;;;;;;5053845;28;20032;-71
2023/03/27 06:41:40;;;;;;;1999.90;999.90;;;8.60;99.90;;;;;;5050950;28;20553;-79
2023/03/27 06:44:06;;;;;;;1999.90;999.90;;;8.60;99.90;;;;;;5047988;28;20032;-71
2023/03/27 06:46:32;;;;;;;1999.90;999.90;;;8.60;99.90;;;;;;5055440;28;20041;-70
2023/03/27 06:48:57;;;;;;;1999.90;999.90;;;8.60;99.90;;;;;;5052557;28;20115;-79
2023/03/27 06:51:25;;;;;;;1999.90;999.90;;;8.70;99.90;;;;;;5059458;28;20045;-71
2023/03/27 06:53:52;;;;;;;1999.90;999.90;;;8.70;99.90;;;;;;5039122;28;20369;-78
2023/03/27 06:56:18;;;;;;;1999.90;999.90;;;8.80;99.90;;;;;;5050118;28;20025;-78
2023/03/27 06:58:44;;;;;;;1999.90;999.90;;;8.70;99.90;;;;;;5050103;28;20047;-71
2023/03/27 07:01:10;;;;;;;1999.90;999.90;;;8.70;99.90;;;;;;5059613;28;20108;-71
2023/03/27 07:03:36;;;;;;;1999.90;999.90;;;8.80;99.90;;;;;;5038017;28;20067;-72
2023/03/27 07:06:02;;;;;;;1999.90;999.90;;;8.80;99.90;;;;;;5052547;28;20391;-71
2023/03/27 07:08:28;;;;;;;1999.90;999.90;;;8.90;99.90;;;;;;5056545;28;20744;-78
2023/03/27 07:10:54;;;;;;;1999.90;999.90;;;9.00;99.90;;;;;;5048967;28;20109;-78
2023/03/27 07:13:20;;;;;;;1999.90;999.90;;;9.00;99.90;;;;;;5039775;28;20653;-81
2023/03/27 07:15:45;;;;;;;1999.90;999.90;;;9.10;99.90;;;;;;5043014;28;20040;-71
2023/03/27 07:18:11;;;;;;;1999.90;999.90;;;9.20;99.90;;;;;;5047662;28;20063;-70
2023/03/27 07:20:37;;;;;;;1999.90;999.90;;;9.20;99.90;;;;;;5053774;28;20032;-76
2023/03/27 07:23:03;;;;;;;1999.90;999.90;;;9.30;99.90;;;;;;5044020;28;20029;-78
2023/03/27 07:25:35;;;;;;;1999.90;999.90;;;9.30;99.90;;;;;;5057563;28;20116;-71
2023/03/27 07:28:04;;;;;;;1999.90;999.90;;;9.30;99.90;;;;;;5057334;28;20032;-71
2023/03/27 07:30:30;;;;;;;1999.90;999.90;;;9.40;99.90;;;;;;5050539;28;20116;-72
2023/03/27 07:32:57;;;;;;;1999.90;999.90;;;9.30;99.90;;;;;;5058267;28;21017;-75
2023/03/27 07:35:23;;;;;;;1999.90;999.90;;;9.40;99.90;;;;;;5051432;28;20487;-79
2023/03/27 07:37:51;;;;;;;1999.90;999.90;;;9.40;99.90;;;;;;5044451;28;20028;-78
2023/03/27 07:40:21;;;;;;;1999.90;999.90;;;9.60;99.90;;;;;;5049923;28;20025;-71
2023/03/27 07:42:48;;;;;;;1999.90;999.90;;;9.80;99.90;;;;;;5046067;28;20032;-71
2023/03/27 07:45:15;;;;;;;1999.90;999.90;;;9.90;99.90;;;;;;5059240;28;20040;-72
2023/03/27 07:47:42;;;;;;;1999.90;999.90;;;10.10;99.90;;;;;;5054784;28;20606;-78
2023/03/27 07:50:10;;;;;;;1999.90;999.90;;;10.20;99.90;;;;;;5049440;28;20127;-77
2023/03/27 07:52:39;;;;;;;1999.90;999.90;;;10.40;99.90;;;;;;5049400;28;20032;-78
2023/03/27 07:55:06;;;;;;;1999.90;999.90;;;10.40;99.90;;;;;;5048208;28;20086;-71
2023/03/27 07:57:32;;;;;;;1999.90;999.90;;;10.50;99.90;;;;;;5045438;28;20055;-71
2023/03/27 07:59:58;;;;;;;1999.90;999.90;;;10.60;99.90;;;;;;5044700;28;20021;-79
2023/03/27 08:02:24;;;;;;;1999.90;999.90;;;10.70;99.90;;;;;;5048832;28;20032;-77
2023/03/27 08:04:54;;;;;;;1999.90;999.90;;;10.80;99.90;;;;;;5046549;28;20028;-70
2023/03/27 08:07:21;;;;;;;1999.90;999.90;;;10.90;99.90;;;;;;5044295;28;20034;-79
2023/03/27 08:09:47;;;;;;;1999.90;999.90;;;11.00;99.90;;;;;;5048560;28;20119;-70
2023/03/27 08:12:14;;;;;;;1999.90;999.90;;;11.10;99.90;;;;;;5041608;28;20108;-71
2023/03/27 08:14:40;;;;;;;1999.90;999.90;;;11.20;99.90;;;;;;5047970;28;20032;-78
2023/03/27 08:17:06;;;;;;;1999.90;999.90;;;11.10;99.90;;;;;;5048519;28;20025;-71
2023/03/27 08:19:32;;;;;;;1999.90;999.90;;;11.00;99.90;;;;;;5051602;28;20508;-79
2023/03/27 08:21:58;;;;;;;1999.90;999.90;;;10.90;99.90;;;;;;5050191;28;20029;-72
2023/03/27 08:24:23;;;;;;;1999.90;999.90;;;10.90;99.90;;;;;;5049711;28;20040;-72
2023/03/27 08:26:49;;;;;;;1999.90;999.90;;;10.90;99.90;;;;;;5049232;28;20036;-78
2023/03/27 08:29:15;;;;;;;1999.90;999.90;;;11.00;99.90;;;;;;5050371;28;20017;-71
2023/03/27 08:31:42;;;;;;;1999.90;999.90;;;11.00;99.90;;;;;;5047046;28;20162;-79
2023/03/27 08:34:08;;;;;;;1999.90;999.90;;;11.10;99.90;;;;;;5052227;28;20041;-78
2023/03/27 08:36:33;;;;;;;1999.90;999.90;;;11.10;99.90;;;;;;5052683;28;20049;-72
2023/03/27 08:39:01;;;;;;;1999.90;999.90;;;11.20;99.90;;;;;;5053999;28;20488;-78
2023/03/27 08:41:42;;;;;;;1999.90;999.90;;;11.30;99.90;;;;;;5051317;28;20025;-76
2023/03/27 08:44:14;;;;;;;1999.90;999.90;;;11.30;99.90;;;;;;5050702;28;20044;-71
2023/03/27 08:46:43;;;;;;;1999.90;999.90;;;11.30;99.90;;;;;;5048607;28;20403;-79
2023/03/27 08:49:20;;;;;;;1999.90;999.90;;;11.40;99.90;;;;;;5041826;28;20054;-71
2023/03/27 08:51:56;;;;;;;1999.90;999.90;;;11.80;99.90;;;;;;5049464;28;20403;-78
2023/03/27 08:54:26;;;;;;;1999.90;999.90;;;12.30;99.90;;;;;;5050627;28;20028;-80
2023/03/27 08:56:52;;;;;;;1999.90;999.90;;;12.80;99.90;;;;;;5052996;28;20052;-70
2023/03/27 08:59:20;;;;;;;1999.90;999.90;;;13.10;99.90;;;;;;5052980;28;20021;-78
2023/03/27 09:02:19;;;;;;;1999.90;999.90;;;13.20;99.90;;;;;;5058139;28;20027;-71
2023/03/27 09:05:03;;;;;;;1999.90;999.90;;;13.20;99.90;;;;;;5053289;28;20037;-70
2023/03/27 09:07:50;;;;;;;1999.90;999.90;;;13.40;99.90;;;;;;5053491;28;20492;-70
2023/03/27 09:10:24;;;;;;;1999.90;999.90;;;13.80;99.90;;;;;;5048341;28;20091;-77
2023/03/27 09:13:14;;;;;;;1999.90;999.90;;;14.10;99.90;;;;;;5052014;28;20033;-72
2023/03/27 09:15:57;;;;;;;1999.90;999.90;;;14.00;99.90;;;;;;5053100;28;20037;-72
2023/03/27 09:18:33;;;;;;;1999.90;999.90;;;14.00;99.90;;;;;;5062329;28;20024;-77
2023/03/27 09:21:06;;;;;;;1999.90;999.90;;;14.30;99.90;;;;;;5050471;28;20029;-75
2023/03/27 09:23:44;;;;;;;1999.90;999.90;;;14.90;99.90;;;;;;5049847;28;20102;-71
2023/03/27 09:26:18;;;;;;;1999.90;999.90;;;14.80;99.90;;;;;;5053327;28;20189;-71
2023/03/27 09:28:54;;;;;;;1999.90;999.90;;;14.90;99.90;;;;;;5060715;28;20051;-71
2023/03/27 09:31:33;;;;;;;1999.90;999.90;;;14.90;99.90;;;;;;5045522;28;20026;-71
2023/03/27 09:34:03;;;;;;;1999.90;999.90;;;15.20;99.90;;;;;;5052778;28;20503;-79
2023/03/27 09:36:29;;;;;;;1999.90;999.90;;;15.20;99.90;;;;;;5055119;28;20017;-77
2023/03/27 09:39:02;;;;;;;1999.90;999.90;;;16.40;99.90;;;;;;5061122;28;20013;-71
2023/03/27 09:41:33;;;;;;;1999.90;999.90;;;17.50;99.90;;;;;;5060311;28;20032;-79
2023/03/27 09:44:24;;;;;;;1999.90;999.90;;;17.40;99.90;;;;;;5050089;28;20033;-71
2023/03/27 09:47:03;;;;;;;1999.90;999.90;;;16.50;99.90;;;;;;5051600;28;20082;-79
2023/03/27 09:49:29;;;;;;;1999.90;999.90;;;16.30;99.90;;;;;;5065195;28;20617;-79
2023/03/27 09:51:57;;;;;;;1999.90;999.90;;;16.70;99.90;;;;;;5052772;28;20096;-79
2023/03/27 09:54:27;;;;;;;1999.90;999.90;;;16.40;99.90;;;;;;5051504;28;20112;-72
2023/03/27 09:56:53;;;;;;;1999.90;999.90;;;16.60;99.90;;;;;;5047343;28;20467;-79
2023/03/27 09:59:32;;;;;;;1999.90;999.90;;;17.00;99.90;;;;;;5049108;28;20033;-72
2023/03/27 10:02:07;;;;;;;1999.90;999.90;;;16.70;99.90;;;;;;5049279;28;20100;-79
2023/03/27 10:04:33;;;;;;;1999.90;999.90;;;16.60;99.90;;;;;;5052273;28;20036;-79
2023/03/27 10:07:06;;;;;;;1999.90;999.90;;;16.80;99.90;;;;;;5050431;28;20472;-71
2023/03/27 10:09:35;;;;;;;1999.90;999.90;;;16.60;99.90;;;;;;5049786;28;20032;-71
2023/03/27 10:12:01;;;;;;;1999.90;999.90;;;15.90;99.90;;;;;;5048889;28;20533;-80
2023/03/27 10:14:28;;;;;;;1999.90;999.90;;;16.40;99.90;;;;;;5051401;28;20040;-79
2023/03/27 10:16:54;;;;;;;1999.90;999.90;;;16.80;99.90;;;;;;5050265;28;20059;-79
2023/03/27 10:19:26;;;;;;;1999.90;999.90;;;16.30;99.90;;;;;;5048666;28;20057;-72
2023/03/27 10:21:55;;;;;;;1999.90;999.90;;;16.50;99.90;;;;;;5050124;28;20075;-78
2023/03/27 10:24:30;;;;;;;1999.90;999.90;;;16.40;99.90;;;;;;5047788;28;20029;-78
2023/03/27 10:27:04;;;;;;;1999.90;999.90;;;15.70;99.90;;;;;;5047253;28;20033;-78
2023/03/27 10:29:36;;;;;;;1999.90;999.90;;;15.60;99.90;;;;;;5050331;28;20033;-78
2023/03/27 10:32:04;;;;;;;1999.90;999.90;;;15.50;99.90;;;;;;5044907;28;20352;-78
2023/03/27 10:34:35;;;;;;;1999.90;999.90;;;15.50;99.90;;;;;;5049213;28;20032;-73
2023/03/27 10:37:03;;;;;;;1999.90;999.90;;;15.70;99.90;;;;;;5049968;28;20086;-78
2023/03/27 10:39:33;;;;;;;1999.90;999.90;;;16.10;99.90;;;;;;5041722;28;20067;-78
2023/03/27 10:42:05;;;;;;;1999.90;999.90;;;16.30;99.90;;;;;;5048329;28;20894;-78
2023/03/27 10:44:31;;;;;;;1999.90;999.90;;;16.00;99.90;;;;;;5054811;28;20064;-73
2023/03/27 10:46:57;;;;;;;1999.90;999.90;;;16.00;99.90;;;;;;5051877;28;20443;-72
2023/03/27 10:49:45;;;;;;;1999.90;999.90;;;15.70;99.90;;;;;;5053348;28;20491;-78
2023/03/27 10:52:31;;;;;;;1999.90;999.90;;;15.20;99.90;;;;;;5055506;28;20024;-78
2023/03/27 10:55:00;;;;;;;1999.90;999.90;;;14.60;99.90;;;;;;5056729;28;20377;-78
2023/03/27 10:57:34;;;;;;;1999.90;999.90;;;14.30;99.90;;;;;;5040616;28;20032;-77
2023/03/27 11:00:34;;;;;;;1999.90;999.90;;;13.90;99.90;;;;;;5058963;28;20047;-72
2023/03/27 11:03:15;;;;;;;1999.90;999.90;;;13.70;99.90;;;;;;5051171;28;20392;-78
2023/03/27 11:05:46;;;;;;;1999.90;999.90;;;14.30;99.90;;;;;;5054338;28;20028;-78
2023/03/27 11:08:21;;;;;;;1999.90;999.90;;;14.80;99.90;;;;;;5053543;28;20035;-78
2023/03/27 11:10:48;;;;;;;1999.90;999.90;;;15.10;99.90;;;;;;5047422;28;20164;-72
2023/03/27 11:13:33;;;;;;;1999.90;999.90;;;15.60;99.90;;;;;;5048466;28;20029;-73
2023/03/27 11:16:24;;;;;;;1999.90;999.90;;;15.80;99.90;;;;;;5048830;28;20028;-78
2023/03/27 11:19:03;;;;;;;1999.90;999.90;;;15.80;99.90;;;;;;5049454;28;20028;-78
2023/03/27 11:21:41;;;;;;;1999.90;999.90;;;15.50;99.90;;;;;;5055220;28;20028;-73
2023/03/27 11:24:21;;;;;;;1999.90;999.90;;;15.20;99.90;;;;;;5054220;28;20029;-73
2023/03/27 11:27:02;;;;;;;1999.90;999.90;;;14.90;99.90;;;;;;5044998;28;20037;-73
2023/03/27 11:29:46;;;;;;;1999.90;999.90;;;14.80;99.90;;;;;;5049575;28;20059;-72
2023/03/27 11:32:26;;;;;;;1999.90;999.90;;;14.70;99.90;;;;;;5053245;28;20025;-78
2023/03/27 11:34:59;;;;;;;1999.90;999.90;;;14.70;99.90;;;;;;5052012;28;20032;-78
2023/03/27 11:37:44;;;;;;;1999.90;999.90;;;14.80;99.90;;;;;;5056881;28;20108;-72
2023/03/27 11:40:28;;;;;;;1999.90;999.90;;;14.90;99.90;;;;;;5057316;28;20024;-73
2023/03/27 11:42:54;;;;;;;1999.90;999.90;;;14.80;99.90;;;;;;5060091;28;20024;-73
2023/03/27 11:45:23;;;;;;;1999.90;999.90;;;14.80;99.90;;;;;;5049648;28;20056;-72
2023/03/27 11:48:01;;;;;;;1999.90;999.90;;;14.70;99.90;;;;;;5053870;28;20040;-78
2023/03/27 11:51:01;;;;;;;1999.90;999.90;;;14.80;99.90;;;;;;5051389;28;20029;-73
2023/03/27 11:54:10;;;;;;;1999.90;999.90;;;14.80;99.90;;;;;;5052739;28;20056;-78
2023/03/27 11:56:53;;;;;;;1999.90;999.90;;;14.90;99.90;;;;;;5051915;28;20029;-73
2023/03/27 11:59:37;;;;;;;1999.90;999.90;;;15.30;99.90;;;;;;5053001;28;20135;-73
2023/03/27 12:02:25;;;;;;;1999.90;999.90;;;15.60;99.90;;;;;;5053158;28;20029;-73
2023/03/27 12:05:08;;;;;;;1999.90;999.90;;;15.60;99.90;;;;;;5053522;28;20037;-71
2023/03/27 12:07:45;;;;;;;1999.90;999.90;;;15.80;99.90;;;;;;5053315;28;20091;-72
2023/03/27 12:10:33;;;;;;;1999.90;999.90;;;15.80;99.90;;;;;;5052936;28;20021;-81
2023/03/27 12:13:27;;;;;;;1999.90;999.90;;;15.40;99.90;;;;;;5058497;28;20430;-82
2023/03/27 12:16:07;;;;;;;;;;;15.90;99.90;;;;;;5056786;28;20071;-73
2023/03/27 12:18:52;;;;;;;1999.90;999.90;;;16.60;99.90;;;;;;5057548;28;20415;-73
2023/03/27 12:21:23;;;;;;;1999.90;999.90;;;16.70;99.90;;;;;;5053058;28;20064;-82
2023/03/27 12:24:10;;;;;;;1999.90;999.90;;;16.70;99.90;;;;;;5047433;28;20481;-73
2023/03/27 12:27:07;;;;;;;1999.90;999.90;;;16.40;99.90;;;;;;5049454;28;20507;-73
2023/03/27 12:29:52;;;;;;;1999.90;999.90;;;15.90;99.90;;;;;;5054445;28;20032;-74